sensor_id;sensor_type;location;lat;lon;timestamp;pressure;altitude;pressure_sealevel;temperature;humidity
53647;BME280;39550;52.230;5.194;2022-09-21T00:00:40;102576.66;;;12.99;71.05
53647;BME280;39550;52.230;5.194;2022-09-21T00:03:06;102577.50;;;13.00;71.34
53647;BME280;39550;52.230;5.194;2022-09-21T00:05:32;102580.94;;;12.99;70.89
53647;BME280;39550;52.230;5.194;2022-09-21T00:08:02;102572.25;;;12.97;71.29
53647;BME280;39550;52.230;5.194;2022-09-21T00:10:28;102571.41;;;12.96;71.04
53647;BME280;39550;52.230;5.194;2022-09-21T00:12:55;102570.50;;;12.95;70.95
53647;BME280;39550;52.230;5.194;2022-09-21T00:15:21;102572.19;;;12.93;71.19
53647;BME280;39550;52.230;5.194;2022-09-21T00:17:47;102573.94;;;12.94;70.67
53647;BME280;39550;52.230;5.194;2022-09-21T00:20:16;102570.50;;;12.95;71.06
53647;BME280;39550;52.230;5.194;2022-09-21T00:22:41;102567.84;;;12.92;71.14
53647;BME280;39550;52.230;5.194;2022-09-21T00:25:08;102569.56;;;12.92;70.81
53647;BME280;39550;52.230;5.194;2022-09-21T00:27:34;102571.38;;;12.94;71.11
53647;BME280;39550;52.230;5.194;2022-09-21T00:30:00;102576.47;;;12.93;70.67
53647;BME280;39550;52.230;5.194;2022-09-21T00:32:28;102579.03;;;12.91;70.61
53647;BME280;39550;52.230;5.194;2022-09-21T00:34:56;102574.75;;;12.92;70.24
53647;BME280;39550;52.230;5.194;2022-09-21T00:37:21;102573.78;;;12.88;71.16
53647;BME280;39550;52.230;5.194;2022-09-21T00:39:47;102578.16;;;12.91;70.85
53647;BME280;39550;52.230;5.194;2022-09-21T00:42:20;102573.78;;;12.88;70.63
53647;BME280;39550;52.230;5.194;2022-09-21T00:44:46;102567.69;;;12.86;70.36
53647;BME280;39550;52.230;5.194;2022-09-21T00:47:16;102576.38;;;12.88;70.64
53647;BME280;39550;52.230;5.194;2022-09-21T00:49:47;102577.19;;;12.87;71.16
53647;BME280;39550;52.230;5.194;2022-09-21T00:52:14;102575.53;;;12.89;70.58
53647;BME280;39550;52.230;5.194;2022-09-21T00:54:53;102579.78;;;12.87;71.00
53647;BME280;39550;52.230;5.194;2022-09-21T00:57:20;102578.06;;;12.86;70.45
53647;BME280;39550;52.230;5.194;2022-09-21T00:59:49;102579.75;;;12.86;70.53
53647;BME280;39550;52.230;5.194;2022-09-21T01:02:17;102577.97;;;12.85;70.29
53647;BME280;39550;52.230;5.194;2022-09-21T01:04:43;102581.44;;;12.84;70.73
53647;BME280;39550;52.230;5.194;2022-09-21T01:07:15;102576.22;;;12.82;70.75
53647;BME280;39550;52.230;5.194;2022-09-21T01:09:46;102578.84;;;12.84;70.58
53647;BME280;39550;52.230;5.194;2022-09-21T01:31:03;102573.38;;;12.73;70.47
53647;BME280;39550;52.230;5.194;2022-09-21T01:33:36;102577.75;;;12.75;70.82
53647;BME280;39550;52.230;5.194;2022-09-21T01:36:14;102583.81;;;12.76;70.37
53647;BME280;39550;52.230;5.194;2022-09-21T01:38:44;102576.88;;;12.75;70.34
53647;BME280;39550;52.230;5.194;2022-09-21T01:41:15;102571.69;;;12.75;70.45
53647;BME280;39550;52.230;5.194;2022-09-21T01:43:46;102573.38;;;12.73;70.65
53647;BME280;39550;52.230;5.194;2022-09-21T01:46:18;102573.38;;;12.73;70.06
53647;BME280;39550;52.230;5.194;2022-09-21T01:48:53;102574.19;;;12.72;70.30
53647;BME280;39550;52.230;5.194;2022-09-21T01:51:21;102570.75;;;12.71;70.49
53647;BME280;39550;52.230;5.194;2022-09-21T01:53:53;102567.19;;;12.68;70.19
53647;BME280;39550;52.230;5.194;2022-09-21T01:56:35;102575.00;;;12.69;69.99
53647;BME280;39550;52.230;5.194;2022-09-21T01:59:18;102582.75;;;12.69;70.23
53647;BME280;39550;52.230;5.194;2022-09-21T02:01:58;102569.72;;;12.65;70.39
53647;BME280;39550;52.230;5.194;2022-09-21T02:04:26;102583.53;;;12.67;69.90
53647;BME280;39550;52.230;5.194;2022-09-21T02:06:51;102581.81;;;12.66;70.14
53647;BME280;39550;52.230;5.194;2022-09-21T02:09:17;102577.50;;;12.66;70.26
53647;BME280;39550;52.230;5.194;2022-09-21T02:11:43;102582.69;;;12.66;69.97
53647;BME280;39550;52.230;5.194;2022-09-21T02:14:14;102574.81;;;12.62;70.03
53647;BME280;39550;52.230;5.194;2022-09-21T02:17:09;102581.81;;;12.66;70.08
53647;BME280;39550;52.230;5.194;2022-09-21T02:25:06;102579.88;;;12.58;69.63
53647;BME280;39550;52.230;5.194;2022-09-21T02:27:42;102579.06;;;12.61;69.82
53647;BME280;39550;52.230;5.194;2022-09-21T02:30:17;102578.22;;;12.60;69.99
53647;BME280;39550;52.230;5.194;2022-09-21T02:35:52;102586.81;;;12.59;69.88
53647;BME280;39550;52.230;5.194;2022-09-21T02:38:41;102578.09;;;12.56;69.74
53647;BME280;39550;52.230;5.194;2022-09-21T02:43:46;102588.47;;;12.57;69.79
53647;BME280;39550;52.230;5.194;2022-09-21T02:46:30;102577.25;;;12.57;69.21
53647;BME280;39550;52.230;5.194;2022-09-21T02:49:03;102575.38;;;12.51;69.85
53647;BME280;39550;52.230;5.194;2022-09-21T02:51:36;102572.84;;;12.54;70.19
53647;BME280;39550;52.230;5.194;2022-09-21T02:54:03;102570.28;;;12.54;69.53
53647;BME280;39550;52.230;5.194;2022-09-21T02:56:30;102565.03;;;12.51;69.52
53647;BME280;39550;52.230;5.194;2022-09-21T02:58:59;102567.59;;;12.51;69.50
53647;BME280;39550;52.230;5.194;2022-09-21T03:01:25;102565.06;;;12.53;69.66
53647;BME280;39550;52.230;5.194;2022-09-21T03:03:51;102563.16;;;12.46;69.54
53647;BME280;39550;52.230;5.194;2022-09-21T03:06:16;102568.50;;;12.52;69.46
53647;BME280;39550;52.230;5.194;2022-09-21T03:08:42;102569.28;;;12.49;69.68
53647;BME280;39550;52.230;5.194;2022-09-21T03:11:07;102564.13;;;12.49;69.49
53647;BME280;39550;52.230;5.194;2022-09-21T03:13:34;102570.94;;;12.47;69.30
53647;BME280;39550;52.230;5.194;2022-09-21T03:16:03;102567.44;;;12.45;69.56
53647;BME280;39550;52.230;5.194;2022-09-21T03:18:29;102571.84;;;12.48;69.56
53647;BME280;39550;52.230;5.194;2022-09-21T03:20:55;102575.25;;;12.47;69.89
53647;BME280;39550;52.230;5.194;2022-09-21T03:23:20;102574.38;;;12.46;69.81
53647;BME280;39550;52.230;5.194;2022-09-21T03:25:46;102581.22;;;12.44;69.12
53647;BME280;39550;52.230;5.194;2022-09-21T03:28:13;102572.63;;;12.45;69.48
53647;BME280;39550;52.230;5.194;2022-09-21T03:30:38;102577.78;;;12.45;69.43
53647;BME280;39550;52.230;5.194;2022-09-21T03:33:04;102584.63;;;12.43;69.32
53647;BME280;39550;52.230;5.194;2022-09-21T03:35:31;102585.50;;;12.43;69.20
53647;BME280;39550;52.230;5.194;2022-09-21T03:37:58;102583.75;;;12.42;69.30
53647;BME280;39550;52.230;5.194;2022-09-21T03:40:23;102581.13;;;12.41;69.27
53647;BME280;39550;52.230;5.194;2022-09-21T03:42:52;102586.31;;;12.41;69.21
53647;BME280;39550;52.230;5.194;2022-09-21T03:45:17;102586.31;;;12.41;69.56
53647;BME280;39550;52.230;5.194;2022-09-21T03:47:43;102570.50;;;12.32;69.22
53647;BME280;39550;52.230;5.194;2022-09-21T03:50:09;102579.28;;;12.37;69.42
53647;BME280;39550;52.230;5.194;2022-09-21T03:52:35;102584.53;;;12.40;69.30
53647;BME280;39550;52.230;5.194;2022-09-21T03:55:02;102579.09;;;12.31;69.11
53647;BME280;39550;52.230;5.194;2022-09-21T03:57:31;102583.63;;;12.38;69.90
53647;BME280;39550;52.230;5.194;2022-09-21T03:59:58;102591.38;;;12.38;68.94
53647;BME280;39550;52.230;5.194;2022-09-21T04:02:23;102589.66;;;12.38;69.18
53647;BME280;39550;52.230;5.194;2022-09-21T04:04:48;102584.47;;;12.37;69.58
53647;BME280;39550;52.230;5.194;2022-09-21T04:07:14;102581.88;;;12.37;69.51
53647;BME280;39550;52.230;5.194;2022-09-21T04:09:39;102583.56;;;12.36;69.66
53647;BME280;39550;52.230;5.194;2022-09-21T04:12:06;102580.06;;;12.34;69.17
53647;BME280;39550;52.230;5.194;2022-09-21T04:14:31;102580.94;;;12.35;68.60
53647;BME280;39550;52.230;5.194;2022-09-21T04:16:56;102582.66;;;12.34;69.32
53647;BME280;39550;52.230;5.194;2022-09-21T04:19:22;102580.94;;;12.35;69.44
53647;BME280;39550;52.230;5.194;2022-09-21T04:21:48;102583.47;;;12.33;69.11
53647;BME280;39550;52.230;5.194;2022-09-21T04:24:15;102580.84;;;12.32;69.26
53647;BME280;39550;52.230;5.194;2022-09-21T04:26:43;102575.59;;;12.29;69.30
53647;BME280;39550;52.230;5.194;2022-09-21T04:29:11;102581.63;;;12.29;69.37
53647;BME280;39550;52.230;5.194;2022-09-21T04:31:36;102582.53;;;12.30;69.22
53647;BME280;39550;52.230;5.194;2022-09-21T04:34:02;102589.34;;;12.27;69.32
53647;BME280;39550;52.230;5.194;2022-09-21T04:36:27;102589.34;;;12.27;69.48
53647;BME280;39550;52.230;5.194;2022-09-21T04:38:53;102578.00;;;12.22;69.28
53647;BME280;39550;52.230;5.194;2022-09-21T04:41:19;102583.28;;;12.25;69.06
53647;BME280;39550;52.230;5.194;2022-09-21T04:43:46;102582.34;;;12.23;69.28
53647;BME280;39550;52.230;5.194;2022-09-21T04:46:14;102578.94;;;12.24;69.17
53647;BME280;39550;52.230;5.194;2022-09-21T04:48:40;102574.59;;;12.23;69.17
53647;BME280;39550;52.230;5.194;2022-09-21T04:51:06;102579.75;;;12.23;68.94
53647;BME280;39550;52.230;5.194;2022-09-21T04:53:33;102585.75;;;12.22;69.05
53647;BME280;39550;52.230;5.194;2022-09-21T04:55:59;102580.41;;;12.16;69.16
53647;BME280;39550;52.230;5.194;2022-09-21T04:58:24;102581.41;;;12.20;69.12
53647;BME280;39550;52.230;5.194;2022-09-21T05:00:51;102583.97;;;12.20;69.38
53647;BME280;39550;52.230;5.194;2022-09-21T05:03:20;102587.34;;;12.17;68.73
53647;BME280;39550;52.230;5.194;2022-09-21T05:05:54;102590.84;;;12.19;68.66
53647;BME280;39550;52.230;5.194;2022-09-21T05:08:20;102594.25;;;12.18;68.74
53647;BME280;39550;52.230;5.194;2022-09-21T05:11:13;102593.38;;;12.18;68.49
53647;BME280;39550;52.230;5.194;2022-09-21T05:13:40;102598.50;;;12.16;68.81
53647;BME280;39550;52.230;5.194;2022-09-21T05:16:06;102597.69;;;12.17;69.17
53647;BME280;39550;52.230;5.194;2022-09-21T05:18:31;102590.75;;;12.16;68.53
53647;BME280;39550;52.230;5.194;2022-09-21T05:20:58;102587.06;;;12.08;69.09
53647;BME280;39550;52.230;5.194;2022-09-21T05:23:25;102597.44;;;12.09;68.51
53647;BME280;39550;52.230;5.194;2022-09-21T05:25:50;102608.81;;;12.15;68.83
53647;BME280;39550;52.230;5.194;2022-09-21T05:28:17;102605.28;;;12.13;69.00
53647;BME280;39550;52.230;5.194;2022-09-21T05:30:50;102609.59;;;12.12;68.29
53647;BME280;39550;52.230;5.194;2022-09-21T05:33:19;102614.75;;;12.12;68.30
53647;BME280;39550;52.230;5.194;2022-09-21T05:36:07;102612.13;;;12.11;68.58
53647;BME280;39550;52.230;5.194;2022-09-21T05:38:35;102608.66;;;12.10;68.89
53647;BME280;39550;52.230;5.194;2022-09-21T05:41:01;102607.66;;;12.05;68.82
53647;BME280;39550;52.230;5.194;2022-09-21T05:43:27;102614.66;;;12.09;68.68
53647;BME280;39550;52.230;5.194;2022-09-21T05:46:01;102609.50;;;12.09;68.51
53647;BME280;39550;52.230;5.194;2022-09-21T05:48:57;102613.78;;;12.08;68.45
53647;BME280;39550;52.230;5.194;2022-09-21T05:59:09;102615.50;;;12.08;68.61
53647;BME280;39550;52.230;5.194;2022-09-21T06:02:03;102618.06;;;12.08;68.42
53647;BME280;39550;52.230;5.194;2022-09-21T06:04:29;102627.56;;;12.07;68.33
53647;BME280;39550;52.230;5.194;2022-09-21T06:06:55;102633.41;;;12.02;68.45
53647;BME280;39550;52.230;5.194;2022-09-21T06:09:20;102629.03;;;11.99;68.24
53647;BME280;39550;52.230;5.194;2022-09-21T06:11:46;102626.31;;;11.96;68.38
53647;BME280;39550;52.230;5.194;2022-09-21T06:14:12;102627.25;;;11.98;67.66
53647;BME280;39550;52.230;5.194;2022-09-21T06:16:38;102629.03;;;11.99;68.08
53647;BME280;39550;52.230;5.194;2022-09-21T06:19:04;102625.59;;;12.00;67.74
53647;BME280;39550;52.230;5.194;2022-09-21T06:21:29;102637.63;;;12.00;67.93
53647;BME280;39550;52.230;5.194;2022-09-21T06:23:54;102637.59;;;11.98;68.29
53647;BME280;39550;52.230;5.194;2022-09-21T06:26:20;102636.66;;;11.96;67.78
53647;BME280;39550;52.230;5.194;2022-09-21T06:28:45;102634.16;;;11.98;67.47
53647;BME280;39550;52.230;5.194;2022-09-21T06:31:10;102628.03;;;11.96;67.25
53647;BME280;39550;52.230;5.194;2022-09-21T06:33:36;102638.38;;;11.96;67.28
53647;BME280;39550;52.230;5.194;2022-09-21T06:36:02;102634.84;;;11.93;67.36
53647;BME280;39550;52.230;5.194;2022-09-21T06:38:27;102633.19;;;11.96;66.98
53647;BME280;39550;52.230;5.194;2022-09-21T06:40:54;102636.59;;;11.95;67.11
53647;BME280;39550;52.230;5.194;2022-09-21T06:43:20;102623.53;;;11.90;67.15
53647;BME280;39550;52.230;5.194;2022-09-21T06:45:56;102637.50;;;11.95;67.32
53647;BME280;39550;52.230;5.194;2022-09-21T06:48:22;102634.97;;;11.97;66.95
53647;BME280;39550;52.230;5.194;2022-09-21T06:50:49;102628.13;;;11.99;66.98
53647;BME280;39550;52.230;5.194;2022-09-21T06:53:15;102629.03;;;11.99;67.10
53647;BME280;39550;52.230;5.194;2022-09-21T06:55:41;102622.91;;;11.97;67.23
53647;BME280;39550;52.230;5.194;2022-09-21T06:58:07;102629.09;;;12.02;66.91
53647;BME280;39550;52.230;5.194;2022-09-21T07:00:32;102633.41;;;12.02;67.24
53647;BME280;39550;52.230;5.194;2022-09-21T07:02:58;102630.81;;;12.02;67.28
53647;BME280;39550;52.230;5.194;2022-09-21T07:05:23;102635.09;;;12.01;67.49
53647;BME280;39550;52.230;5.194;2022-09-21T07:07:49;102628.25;;;12.02;67.54
53647;BME280;39550;52.230;5.194;2022-09-21T07:10:14;102622.03;;;11.97;67.34
53647;BME280;39550;52.230;5.194;2022-09-21T07:12:40;102640.25;;;12.01;67.61
53647;BME280;39550;52.230;5.194;2022-09-21T07:15:06;102635.06;;;12.00;67.73
53647;BME280;39550;52.230;5.194;2022-09-21T07:17:37;102632.50;;;12.01;67.89
53647;BME280;39550;52.230;5.194;2022-09-21T07:20:04;102636.91;;;12.04;67.72
53647;BME280;39550;52.230;5.194;2022-09-21T07:22:33;102642.94;;;12.04;68.00
53647;BME280;39550;52.230;5.194;2022-09-21T07:24:59;102641.16;;;12.02;68.55
53647;BME280;39550;52.230;5.194;2022-09-21T07:27:25;102635.13;;;12.03;67.88
53647;BME280;39550;52.230;5.194;2022-09-21T07:29:50;102637.75;;;12.04;68.20
53647;BME280;39550;52.230;5.194;2022-09-21T07:32:16;102627.25;;;11.98;68.56
53647;BME280;39550;52.230;5.194;2022-09-21T07:34:42;102631.72;;;12.04;68.37
53647;BME280;39550;52.230;5.194;2022-09-21T07:37:07;102644.69;;;12.05;68.34
53647;BME280;39550;52.230;5.194;2022-09-21T07:39:32;102641.28;;;12.06;68.32
53647;BME280;39550;52.230;5.194;2022-09-21T07:41:59;102636.16;;;12.08;68.34
53647;BME280;39550;52.230;5.194;2022-09-21T07:44:25;102620.53;;;12.03;68.13
53647;BME280;39550;52.230;5.194;2022-09-21T07:46:51;102637.03;;;12.08;69.32
53647;BME280;39550;52.230;5.194;2022-09-21T07:49:16;102641.38;;;12.09;68.64
53647;BME280;39550;52.230;5.194;2022-09-21T07:51:41;102639.72;;;12.12;68.59
53647;BME280;39550;52.230;5.194;2022-09-21T07:54:11;102628.59;;;12.14;68.86
53647;BME280;39550;52.230;5.194;2022-09-21T07:56:36;102624.31;;;12.15;68.34
53647;BME280;39550;52.230;5.194;2022-09-21T07:59:03;102624.22;;;12.12;68.62
53647;BME280;39550;52.230;5.194;2022-09-21T08:01:36;102626.94;;;12.16;68.86
53647;BME280;39550;52.230;5.194;2022-09-21T08:04:03;102631.16;;;12.14;68.95
53647;BME280;39550;52.230;5.194;2022-09-21T08:06:30;102628.66;;;12.16;69.01
53647;BME280;39550;52.230;5.194;2022-09-21T08:08:59;102627.72;;;12.14;68.66
53647;BME280;39550;52.230;5.194;2022-09-21T08:11:26;102628.75;;;12.19;69.11
53647;BME280;39550;52.230;5.194;2022-09-21T08:13:53;102631.38;;;12.20;68.55
53647;BME280;39550;52.230;5.194;2022-09-21T08:16:19;102637.38;;;12.19;68.70
53647;BME280;39550;52.230;5.194;2022-09-21T08:18:44;102590.09;;;11.95;68.23
53647;BME280;39550;52.230;5.194;2022-09-21T08:21:10;102626.13;;;12.17;68.79
53647;BME280;39550;52.230;5.194;2022-09-21T08:23:36;102615.63;;;12.13;68.99
53647;BME280;39550;52.230;5.194;2022-09-21T08:26:05;102634.94;;;12.24;69.39
53647;BME280;39550;52.230;5.194;2022-09-21T08:28:32;102637.56;;;12.25;68.67
53647;BME280;39550;52.230;5.194;2022-09-21T08:30:59;102643.59;;;12.26;68.42
53647;BME280;39550;52.230;5.194;2022-09-21T08:33:24;102647.97;;;12.29;68.78
53647;BME280;39550;52.230;5.194;2022-09-21T08:35:53;102646.22;;;12.27;68.88
53647;BME280;39550;52.230;5.194;2022-09-21T08:38:18;102641.94;;;12.28;69.03
53647;BME280;39550;52.230;5.194;2022-09-21T08:40:43;102646.31;;;12.31;68.81
53647;BME280;39550;52.230;5.194;2022-09-21T08:43:12;102648.84;;;12.29;69.26
53647;BME280;39550;52.230;5.194;2022-09-21T08:45:41;102646.31;;;12.31;68.51
53647;BME280;39550;52.230;5.194;2022-09-21T08:48:23;102655.00;;;12.33;68.75
53647;BME280;39550;52.230;5.194;2022-09-21T08:50:52;102653.31;;;12.35;68.92
53647;BME280;39550;52.230;5.194;2022-09-21T08:53:22;102648.16;;;12.35;68.82
53647;BME280;39550;52.230;5.194;2022-09-21T08:55:50;102648.16;;;12.35;68.97
53647;BME280;39550;52.230;5.194;2022-09-21T08:58:26;102650.84;;;12.38;68.59
53647;BME280;39550;52.230;5.194;2022-09-21T09:12:14;102649.50;;;12.51;68.48
53647;BME280;39550;52.230;5.194;2022-09-21T09:15:18;102653.88;;;12.53;68.68
53647;BME280;39550;52.230;5.194;2022-09-21T09:20:29;102650.72;;;12.64;68.21
53647;BME280;39550;52.230;5.194;2022-09-21T09:25:49;102653.34;;;12.65;68.43
53647;BME280;39550;52.230;5.194;2022-09-21T09:30:55;102659.56;;;12.72;68.35
53647;BME280;39550;52.230;5.194;2022-09-21T09:33:26;102656.06;;;12.70;68.26
53647;BME280;39550;52.230;5.194;2022-09-21T09:36:00;102664.75;;;12.72;68.01
53647;BME280;39550;52.230;5.194;2022-09-21T09:38:36;102663.91;;;12.73;67.98
53647;BME280;39550;52.230;5.194;2022-09-21T09:52:00;102665.28;;;12.90;66.70
53647;BME280;39550;52.230;5.194;2022-09-21T09:54:26;102654.69;;;12.83;66.65
53647;BME280;39550;52.230;5.194;2022-09-21T09:56:54;102653.16;;;12.89;66.54
53647;BME280;39550;52.230;5.194;2022-09-21T09:59:34;102658.56;;;12.99;67.07
53647;BME280;39550;52.230;5.194;2022-09-21T10:02:06;102647.56;;;13.06;66.31
53647;BME280;39550;52.230;5.194;2022-09-21T10:04:32;102651.72;;;13.01;66.58
53647;BME280;39550;52.230;5.194;2022-09-21T10:06:59;102646.63;;;13.04;66.81
53647;BME280;39550;52.230;5.194;2022-09-21T10:09:28;102648.41;;;13.05;65.94
53647;BME280;39550;52.230;5.194;2022-09-21T10:11:57;102650.03;;;13.03;66.37
53647;BME280;39550;52.230;5.194;2022-09-21T10:14:26;102650.88;;;13.00;66.12
53647;BME280;39550;52.230;5.194;2022-09-21T10:16:55;102649.19;;;13.02;65.41
53647;BME280;39550;52.230;5.194;2022-09-21T10:19:25;102648.41;;;13.05;66.42
53647;BME280;39550;52.230;5.194;2022-09-21T10:21:58;102648.50;;;13.09;66.08
53647;BME280;39550;52.230;5.194;2022-09-21T10:24:36;102643.38;;;13.11;65.72
53647;BME280;39550;52.230;5.194;2022-09-21T10:27:10;102645.19;;;13.15;65.63
53647;BME280;39550;52.230;5.194;2022-09-21T10:29:43;102643.47;;;13.14;65.72
53647;BME280;39550;52.230;5.194;2022-09-21T10:34:39;102641.19;;;13.26;65.49
53647;BME280;39550;52.230;5.194;2022-09-21T10:37:28;102642.00;;;13.24;65.42
53647;BME280;39550;52.230;5.194;2022-09-21T10:39:54;102638.44;;;13.20;66.18
53647;BME280;39550;52.230;5.194;2022-09-21T10:42:21;102639.41;;;13.24;65.95
53647;BME280;39550;52.230;5.194;2022-09-21T10:44:49;102633.44;;;13.26;65.59
53647;BME280;39550;52.230;5.194;2022-09-21T10:49:59;102629.56;;;13.44;64.52
53647;BME280;39550;52.230;5.194;2022-09-21T10:52:34;102634.72;;;13.42;65.15
53647;BME280;39550;52.230;5.194;2022-09-21T10:55:00;102634.88;;;13.49;64.35
53647;BME280;39550;52.230;5.194;2022-09-21T10:57:26;102630.63;;;13.52;63.86
53647;BME280;39550;52.230;5.194;2022-09-21T10:59:53;102630.84;;;13.60;64.43
53647;BME280;39550;52.230;5.194;2022-09-21T11:07:55;102627.41;;;13.61;64.07
53647;BME280;39550;52.230;5.194;2022-09-21T11:10:37;102623.78;;;13.54;65.00
53647;BME280;39550;52.230;5.194;2022-09-21T11:13:28;102621.78;;;13.44;65.19
53647;BME280;39550;52.230;5.194;2022-09-21T11:16:03;102619.13;;;13.41;65.56
53647;BME280;39550;52.230;5.194;2022-09-21T11:24:44;102620.13;;;13.46;66.38
53647;BME280;39550;52.230;5.194;2022-09-21T11:27:20;102624.47;;;13.47;65.27
53647;BME280;39550;52.230;5.194;2022-09-21T11:35:25;102629.03;;;13.57;65.88
53647;BME280;39550;52.230;5.194;2022-09-21T11:51:54;102607.31;;;13.52;66.96
53647;BME280;39550;52.230;5.194;2022-09-21T11:54:39;102608.16;;;13.51;67.02
53647;BME280;39550;52.230;5.194;2022-09-21T12:08:13;102603.84;;;13.50;67.17
53647;BME280;39550;52.230;5.194;2022-09-21T12:22:13;102595.13;;;13.48;67.24
53647;BME280;39550;52.230;5.194;2022-09-21T12:24:54;102582.19;;;13.48;67.33
53647;BME280;39550;52.230;5.194;2022-09-21T12:27:35;102578.78;;;13.49;67.83
53647;BME280;39550;52.230;5.194;2022-09-21T12:30:09;102595.31;;;13.54;67.27
53647;BME280;39550;52.230;5.194;2022-09-21T12:35:05;102587.63;;;13.59;67.21
53647;BME280;39550;52.230;5.194;2022-09-21T12:37:39;102587.63;;;13.59;67.35
53647;BME280;39550;52.230;5.194;2022-09-21T12:40:19;102581.38;;;13.51;67.19
53647;BME280;39550;52.230;5.194;2022-09-21T12:45:52;102575.47;;;13.56;67.74
53647;BME280;39550;52.230;5.194;2022-09-21T12:48:32;102571.97;;;13.53;67.27
53647;BME280;39550;52.230;5.194;2022-09-21T12:51:00;102578.03;;;13.55;67.60
53647;BME280;39550;52.230;5.194;2022-09-21T12:53:29;102575.41;;;13.53;67.64
53647;BME280;39550;52.230;5.194;2022-09-21T12:56:05;102570.22;;;13.53;67.34
53647;BME280;39550;52.230;5.194;2022-09-21T13:09:33;102556.91;;;13.76;66.96
53647;BME280;39550;52.230;5.194;2022-09-21T13:12:13;102543.19;;;13.80;66.63
53647;BME280;39550;52.230;5.194;2022-09-21T13:14:49;102554.53;;;13.85;66.48
53647;BME280;39550;52.230;5.194;2022-09-21T13:17:21;102551.19;;;13.91;66.68
53647;BME280;39550;52.230;5.194;2022-09-21T13:19:56;102554.88;;;14.02;66.10
53647;BME280;39550;52.230;5.194;2022-09-21T13:22:24;102552.47;;;14.10;65.54
53647;BME280;39550;52.230;5.194;2022-09-21T13:25:23;102551.94;;;14.26;66.05
53647;BME280;39550;52.230;5.194;2022-09-21T13:33:30;102546.41;;;15.00;62.57
53647;BME280;39550;52.230;5.194;2022-09-21T13:52:01;102531.47;;;16.06;59.70
53647;BME280;39550;52.230;5.194;2022-09-21T13:57:22;102525.78;;;16.39;59.39
53647;BME280;39550;52.230;5.194;2022-09-21T14:05:24;102514.84;;;15.90;60.27
53647;BME280;39550;52.230;5.194;2022-09-21T14:10:48;102513.25;;;16.03;59.19
53647;BME280;39550;52.230;5.194;2022-09-21T14:13:36;102521.13;;;15.44;61.52
53647;BME280;39550;52.230;5.194;2022-09-21T14:18:58;102513.25;;;14.83;63.63
53647;BME280;39550;52.230;5.194;2022-09-21T14:21:24;102522.81;;;14.87;63.71
53647;BME280;39550;52.230;5.194;2022-09-21T14:29:27;102515.38;;;14.58;64.55
53647;BME280;39550;52.230;5.194;2022-09-21T14:31:57;102517.19;;;14.62;65.55
53647;BME280;39550;52.230;5.194;2022-09-21T14:34:27;102515.38;;;14.58;65.08
53647;BME280;39550;52.230;5.194;2022-09-21T14:36:56;102515.38;;;14.58;65.06
53647;BME280;39550;52.230;5.194;2022-09-21T14:39:29;102508.47;;;14.60;65.05
53647;BME280;39550;52.230;5.194;2022-09-21T14:42:00;102508.47;;;14.60;65.18
53647;BME280;39550;52.230;5.194;2022-09-21T14:44:29;102507.59;;;14.58;64.86
53647;BME280;39550;52.230;5.194;2022-09-21T14:47:24;102497.34;;;14.66;64.02
53647;BME280;39550;52.230;5.194;2022-09-21T14:52:48;102497.03;;;14.49;64.77
53647;BME280;39550;52.230;5.194;2022-09-21T15:00:46;102495.22;;;14.45;65.54
53647;BME280;39550;52.230;5.194;2022-09-21T15:11:35;102496.16;;;14.47;64.66
53647;BME280;39550;52.230;5.194;2022-09-21T15:14:21;102489.16;;;14.43;64.03
53647;BME280;39550;52.230;5.194;2022-09-21T15:16:51;102483.88;;;14.40;63.92
53647;BME280;39550;52.230;5.194;2022-09-21T15:21:47;102485.34;;;14.25;63.85
53647;BME280;39550;52.230;5.194;2022-09-21T15:24:28;102490.53;;;14.25;64.55
53647;BME280;39550;52.230;5.194;2022-09-21T15:29:29;102478.41;;;14.24;64.16
53647;BME280;39550;52.230;5.194;2022-09-21T15:31:56;102477.56;;;14.24;64.64
53647;BME280;39550;52.230;5.194;2022-09-21T15:34:22;102479.28;;;14.23;64.80
53647;BME280;39550;52.230;5.194;2022-09-21T15:36:48;102474.09;;;14.23;65.08
53647;BME280;39550;52.230;5.194;2022-09-21T15:39:27;102474.09;;;14.23;65.78
53647;BME280;39550;52.230;5.194;2022-09-21T15:42:11;102475.78;;;14.21;64.98
53647;BME280;39550;52.230;5.194;2022-09-21T15:44:42;102474.03;;;14.22;65.27
53647;BME280;39550;52.230;5.194;2022-09-21T15:47:13;102468.00;;;14.21;65.42
53647;BME280;39550;52.230;5.194;2022-09-21T15:49:40;102473.19;;;14.21;66.30
53647;BME280;39550;52.230;5.194;2022-09-21T15:52:21;102459.25;;;14.16;63.94
53647;BME280;39550;52.230;5.194;2022-09-21T15:54:53;102473.13;;;14.18;64.50
53647;BME280;39550;52.230;5.194;2022-09-21T15:57:24;102468.84;;;14.20;64.45
53647;BME280;39550;52.230;5.194;2022-09-21T15:59:52;102455.81;;;14.17;64.71
53647;BME280;39550;52.230;5.194;2022-09-21T16:02:21;102467.06;;;14.18;65.01
53647;BME280;39550;52.230;5.194;2022-09-21T16:04:48;102460.16;;;14.18;65.02
53647;BME280;39550;52.230;5.194;2022-09-21T16:07:36;102461.00;;;14.17;64.83
53647;BME280;39550;52.230;5.194;2022-09-21T16:10:32;102447.16;;;14.15;65.48
53647;BME280;39550;52.230;5.194;2022-09-21T16:12:49;102445.47;;;14.19;64.76
53647;BME280;39550;52.230;5.194;2022-09-21T16:18:02;102451.56;;;14.21;66.15
53647;BME280;39550;52.230;5.194;2022-09-21T16:20:46;102450.69;;;14.20;65.99
53647;BME280;39550;52.230;5.194;2022-09-21T16:23:18;102450.69;;;14.20;66.57
53647;BME280;39550;52.230;5.194;2022-09-21T16:25:52;102455.88;;;14.20;66.76
53647;BME280;39550;52.230;5.194;2022-09-21T16:30:51;102455.03;;;14.21;67.30
53647;BME280;39550;52.230;5.194;2022-09-21T16:33:36;102451.56;;;14.19;67.26
53647;BME280;39550;52.230;5.194;2022-09-21T16:36:04;102456.66;;;14.16;66.03